sensor_id;sensor_type;location;lat;lon;timestamp;pressure;altitude;pressure_sealevel;temperature;humidity
9110;BME280;4590;51.462;6.692;2022-09-09T00:00:18;100608.75;;;18.48;65.82
9110;BME280;4590;51.462;6.692;2022-09-09T00:02:52;100606.69;;;18.45;66.04
9110;BME280;4590;51.462;6.692;2022-09-09T00:07:53;100600.78;;;18.47;66.09
9110;BME280;4590;51.462;6.692;2022-09-09T00:10:29;100599.59;;;18.48;66.14
9110;BME280;4590;51.462;6.692;2022-09-09T00:13:05;100600.97;;;18.38;67.33
9110;BME280;4590;51.462;6.692;2022-09-09T00:15:46;100611.41;;;18.41;65.83
9110;BME280;4590;51.462;6.692;2022-09-09T00:18:27;100615.72;;;18.39;66.06
9110;BME280;4590;51.462;6.692;2022-09-09T00:21:35;100616.53;;;18.39;65.74
9110;BME280;4590;51.462;6.692;2022-09-09T00:23:54;100610.31;;;18.30;66.19
9110;BME280;4590;51.462;6.692;2022-09-09T00:26:38;100620.50;;;18.22;66.35
9110;BME280;4590;51.462;6.692;2022-09-09T00:29:33;100613.66;;;18.20;66.28
9110;BME280;4590;51.462;6.692;2022-09-09T00:32:12;100620.06;;;18.20;66.29
9110;BME280;4590;51.462;6.692;2022-09-09T00:34:41;100610.53;;;18.21;66.26
9110;BME280;4590;51.462;6.692;2022-09-09T00:37:08;100612.06;;;18.19;66.29
9110;BME280;4590;51.462;6.692;2022-09-09T00:39:38;100622.03;;;18.20;66.36
9110;BME280;4590;51.462;6.692;2022-09-09T00:42:20;100611.59;;;18.17;66.74
9110;BME280;4590;51.462;6.692;2022-09-09T00:44:53;100611.34;;;18.22;66.57
9110;BME280;4590;51.462;6.692;2022-09-09T00:52:57;100614.28;;;18.13;66.73
9110;BME280;4590;51.462;6.692;2022-09-09T00:55:37;100619.06;;;18.13;66.71
9110;BME280;4590;51.462;6.692;2022-09-09T00:58:09;100623.00;;;18.12;66.71
9110;BME280;4590;51.462;6.692;2022-09-09T01:00:49;100614.41;;;18.01;67.56
9110;BME280;4590;51.462;6.692;2022-09-09T01:03:35;100614.41;;;18.01;67.07
9110;BME280;4590;51.462;6.692;2022-09-09T01:06:30;100604.41;;;18.00;67.05
9110;BME280;4590;51.462;6.692;2022-09-09T01:09:14;100598.84;;;18.00;67.30
9110;BME280;4590;51.462;6.692;2022-09-09T01:11:49;100605.59;;;17.99;66.69
9110;BME280;4590;51.462;6.692;2022-09-09T01:22:47;100597.78;;;17.89;67.13
9110;BME280;4590;51.462;6.692;2022-09-09T01:28:22;100590.25;;;17.90;66.86
9110;BME280;4590;51.462;6.692;2022-09-09T01:30:50;100593.84;;;17.90;66.88
9110;BME280;4590;51.462;6.692;2022-09-09T01:33:17;100588.97;;;17.87;67.03
9110;BME280;4590;51.462;6.692;2022-09-09T01:38:14;100579.72;;;17.83;67.11
9110;BME280;4590;51.462;6.692;2022-09-09T01:40:40;100583.69;;;17.82;67.13
9110;BME280;4590;51.462;6.692;2022-09-09T01:43:06;100585.19;;;17.79;67.21
9110;BME280;4590;51.462;6.692;2022-09-09T01:45:32;100588.78;;;17.80;67.11
9110;BME280;4590;51.462;6.692;2022-09-09T01:47:59;100590.75;;;17.79;67.25
9110;BME280;4590;51.462;6.692;2022-09-09T01:50:25;100577.94;;;17.75;67.53
9110;BME280;4590;51.462;6.692;2022-09-09T01:52:56;100587.56;;;17.77;67.38
9110;BME280;4590;51.462;6.692;2022-09-09T01:55:38;100591.84;;;17.75;67.91
9110;BME280;4590;51.462;6.692;2022-09-09T01:58:28;100590.25;;;17.74;67.80
9110;BME280;4590;51.462;6.692;2022-09-09T02:01:06;100591.41;;;17.73;67.83
9110;BME280;4590;51.462;6.692;2022-09-09T02:03:35;100584.03;;;17.80;67.63
9110;BME280;4590;51.462;6.692;2022-09-09T02:06:06;100594.00;;;17.81;67.66
9110;BME280;4590;51.462;6.692;2022-09-09T02:08:42;100589.97;;;17.79;68.04
9110;BME280;4590;51.462;6.692;2022-09-09T02:11:17;100590.06;;;17.82;67.92
9110;BME280;4590;51.462;6.692;2022-09-09T02:13:44;100582.16;;;17.84;67.89
9110;BME280;4590;51.462;6.692;2022-09-09T02:19:06;100589.25;;;17.82;67.95
9110;BME280;4590;51.462;6.692;2022-09-09T02:21:34;100588.53;;;17.85;67.95
9110;BME280;4590;51.462;6.692;2022-09-09T02:24:02;100585.38;;;17.86;67.94
9110;BME280;4590;51.462;6.692;2022-09-09T02:26:31;100579.00;;;17.86;68.00
9110;BME280;4590;51.462;6.692;2022-09-09T02:28:58;100583.78;;;17.85;68.04
9110;BME280;4590;51.462;6.692;2022-09-09T02:31:26;100579.09;;;17.90;68.20
9110;BME280;4590;51.462;6.692;2022-09-09T02:33:55;100580.63;;;17.87;68.12
9110;BME280;4590;51.462;6.692;2022-09-09T02:36:24;100587.09;;;17.91;67.81
9110;BME280;4590;51.462;6.692;2022-09-09T02:38:51;100577.22;;;17.94;67.92
9110;BME280;4590;51.462;6.692;2022-09-09T02:41:21;100583.59;;;17.94;67.84
9110;BME280;4590;51.462;6.692;2022-09-09T02:43:47;100592.75;;;17.95;67.87
9110;BME280;4590;51.462;6.692;2022-09-09T02:46:29;100577.13;;;17.90;67.79
9110;BME280;4590;51.462;6.692;2022-09-09T02:49:09;100580.38;;;17.92;67.56
9110;BME280;4590;51.462;6.692;2022-09-09T02:54:35;100575.16;;;17.91;67.49
9110;BME280;4590;51.462;6.692;2022-09-09T02:57:11;100585.38;;;17.86;67.74
9110;BME280;4590;51.462;6.692;2022-09-09T02:59:38;100581.25;;;17.80;68.03
9110;BME280;4590;51.462;6.692;2022-09-09T03:02:04;100573.81;;;17.84;67.50
9110;BME280;4590;51.462;6.692;2022-09-09T03:04:29;100582.16;;;17.84;67.70
9110;BME280;4590;51.462;6.692;2022-09-09T03:06:57;100576.13;;;17.82;67.46
9110;BME280;4590;51.462;6.692;2022-09-09T03:09:22;100578.91;;;17.67;69.20
9110;BME280;4590;51.462;6.692;2022-09-09T03:11:47;100576.44;;;17.77;67.64
9110;BME280;4590;51.462;6.692;2022-09-09T03:14:14;100573.25;;;17.79;67.37
9110;BME280;4590;51.462;6.692;2022-09-09T03:16:40;100575.25;;;17.78;67.59
9110;BME280;4590;51.462;6.692;2022-09-09T03:19:07;100573.25;;;17.79;67.54
9110;BME280;4590;51.462;6.692;2022-09-09T03:21:32;100574.06;;;17.79;67.63
9110;BME280;4590;51.462;6.692;2022-09-09T03:23:58;100573.25;;;17.79;67.62
9110;BME280;4590;51.462;6.692;2022-09-09T03:26:23;100570.94;;;17.81;67.59
9110;BME280;4590;51.462;6.692;2022-09-09T03:28:49;100572.09;;;17.80;67.75
9110;BME280;4590;51.462;6.692;2022-09-09T03:31:16;100573.34;;;17.82;67.62
9110;BME280;4590;51.462;6.692;2022-09-09T03:33:42;100566.63;;;17.83;68.01
9110;BME280;4590;51.462;6.692;2022-09-09T03:36:07;100567.06;;;17.85;67.70
9110;BME280;4590;51.462;6.692;2022-09-09T03:38:33;100567.88;;;17.86;67.90
9110;BME280;4590;51.462;6.692;2022-09-09T03:40:59;100566.63;;;17.83;67.92
9110;BME280;4590;51.462;6.692;2022-09-09T03:43:25;100571.47;;;17.86;67.83
9110;BME280;4590;51.462;6.692;2022-09-09T03:45:51;100561.34;;;17.78;68.98
9110;BME280;4590;51.462;6.692;2022-09-09T03:48:17;100571.38;;;17.83;67.75
9110;BME280;4590;51.462;6.692;2022-09-09T03:50:47;100566.81;;;17.75;69.49
9110;BME280;4590;51.462;6.692;2022-09-09T03:53:14;100563.84;;;17.83;67.72
9110;BME280;4590;51.462;6.692;2022-09-09T03:55:43;100566.25;;;17.85;67.66
9110;BME280;4590;51.462;6.692;2022-09-09T03:58:09;100567.88;;;17.86;67.75
9110;BME280;4590;51.462;6.692;2022-09-09T04:00:35;100565.47;;;17.84;67.88
9110;BME280;4590;51.462;6.692;2022-09-09T04:03:01;100557.56;;;17.86;67.78
9110;BME280;4590;51.462;6.692;2022-09-09T04:05:26;100564.66;;;17.84;67.69
9110;BME280;4590;51.462;6.692;2022-09-09T04:07:52;100565.56;;;17.88;67.93
9110;BME280;4590;51.462;6.692;2022-09-09T04:10:17;100559.63;;;17.90;67.91
9110;BME280;4590;51.462;6.692;2022-09-09T04:12:42;100561.69;;;17.93;67.72
9110;BME280;4590;51.462;6.692;2022-09-09T04:15:08;100560.53;;;17.94;67.79
9110;BME280;4590;51.462;6.692;2022-09-09T04:17:34;100572.47;;;17.94;67.88
9110;BME280;4590;51.462;6.692;2022-09-09T04:20:01;100571.72;;;17.97;67.86
9110;BME280;4590;51.462;6.692;2022-09-09T04:22:27;100558.63;;;17.98;67.86
9110;BME280;4590;51.462;6.692;2022-09-09T04:24:52;100566.63;;;17.99;67.59
9110;BME280;4590;51.462;6.692;2022-09-09T04:27:17;100569.41;;;17.99;67.94
9110;BME280;4590;51.462;6.692;2022-09-09T04:29:42;100559.34;;;17.95;67.95
9110;BME280;4590;51.462;6.692;2022-09-09T04:32:08;100568.69;;;18.02;67.80
9110;BME280;4590;51.462;6.692;2022-09-09T04:34:33;100560.78;;;18.04;67.75
9110;BME280;4590;51.462;6.692;2022-09-09T04:36:58;100566.34;;;18.04;67.77
9110;BME280;4590;51.462;6.692;2022-09-09T04:39:25;100564.72;;;18.03;67.97
9110;BME280;4590;51.462;6.692;2022-09-09T04:41:50;100575.50;;;18.05;68.12
9110;BME280;4590;51.462;6.692;2022-09-09T04:44:15;100565.63;;;18.07;67.66
9110;BME280;4590;51.462;6.692;2022-09-09T04:46:41;100575.16;;;18.06;67.79
9110;BME280;4590;51.462;6.692;2022-09-09T04:49:06;100574.00;;;18.07;67.59
9110;BME280;4590;51.462;6.692;2022-09-09T04:51:31;100572.47;;;18.10;67.64
9110;BME280;4590;51.462;6.692;2022-09-09T04:53:57;100573.25;;;18.10;67.78
9110;BME280;4590;51.462;6.692;2022-09-09T04:56:22;100574.03;;;18.11;67.60
9110;BME280;4590;51.462;6.692;2022-09-09T04:58:47;100568.88;;;18.09;67.81
9110;BME280;4590;51.462;6.692;2022-09-09T05:01:16;100568.78;;;18.06;67.70
9110;BME280;4590;51.462;6.692;2022-09-09T05:03:42;100572.00;;;18.08;67.83
9110;BME280;4590;51.462;6.692;2022-09-09T05:06:12;100574.84;;;18.11;67.66
9110;BME280;4590;51.462;6.692;2022-09-09T05:08:39;100576.47;;;18.12;67.62
9110;BME280;4590;51.462;6.692;2022-09-09T05:11:28;100571.09;;;18.04;67.88
9110;BME280;4590;51.462;6.692;2022-09-09T05:13:53;100568.56;;;18.14;67.55
9110;BME280;4590;51.462;6.692;2022-09-09T05:16:20;100577.56;;;18.08;67.74
9110;BME280;4590;51.462;6.692;2022-09-09T05:18:46;100571.34;;;18.14;67.67
9110;BME280;4590;51.462;6.692;2022-09-09T05:21:13;100556.63;;;18.14;67.57
9110;BME280;4590;51.462;6.692;2022-09-09T05:23:38;100568.66;;;18.18;67.54
9110;BME280;4590;51.462;6.692;2022-09-09T05:26:04;100567.75;;;18.14;67.63
9110;BME280;4590;51.462;6.692;2022-09-09T05:28:30;100556.81;;;18.05;68.58
9110;BME280;4590;51.462;6.692;2022-09-09T05:30:59;100551.06;;;18.14;67.38
9110;BME280;4590;51.462;6.692;2022-09-09T05:33:26;100556.19;;;18.12;67.51
9110;BME280;4590;51.462;6.692;2022-09-09T05:35:59;100555.75;;;18.10;67.40
9110;BME280;4590;51.462;6.692;2022-09-09T05:38:26;100560.13;;;18.11;67.36
9110;BME280;4590;51.462;6.692;2022-09-09T05:40:52;100551.34;;;18.09;67.49
9110;BME280;4590;51.462;6.692;2022-09-09T05:43:19;100553.75;;;18.10;67.49
9110;BME280;4590;51.462;6.692;2022-09-09T05:45:46;100550.59;;;18.12;67.27
9110;BME280;4590;51.462;6.692;2022-09-09T05:48:13;100560.56;;;18.13;67.33
9110;BME280;4590;51.462;6.692;2022-09-09T05:50:38;100560.56;;;18.13;67.59
9110;BME280;4590;51.462;6.692;2022-09-09T05:53:03;100566.09;;;18.09;67.62
9110;BME280;4590;51.462;6.692;2022-09-09T05:55:29;100562.19;;;18.14;67.31
9110;BME280;4590;51.462;6.692;2022-09-09T05:57:54;100561.03;;;18.15;67.48
9110;BME280;4590;51.462;6.692;2022-09-09T06:00:19;100564.47;;;18.08;67.80
9110;BME280;4590;51.462;6.692;2022-09-09T06:02:50;100559.06;;;18.15;67.27
9110;BME280;4590;51.462;6.692;2022-09-09T06:05:17;100567.94;;;18.21;67.33
9110;BME280;4590;51.462;6.692;2022-09-09T06:07:42;100565.59;;;18.23;67.40
9110;BME280;4590;51.462;6.692;2022-09-09T06:10:09;100570.06;;;18.28;67.46
9110;BME280;4590;51.462;6.692;2022-09-09T06:12:35;100566.47;;;18.27;67.49
9110;BME280;4590;51.462;6.692;2022-09-09T06:15:01;100571.78;;;18.32;67.48
9110;BME280;4590;51.462;6.692;2022-09-09T06:17:26;100570.16;;;18.31;67.42
9110;BME280;4590;51.462;6.692;2022-09-09T06:19:51;100568.63;;;18.34;67.34
9110;BME280;4590;51.462;6.692;2022-09-09T06:22:17;100564.69;;;18.35;67.12
9110;BME280;4590;51.462;6.692;2022-09-09T06:24:42;100572.22;;;18.34;67.22
9110;BME280;4590;51.462;6.692;2022-09-09T06:27:08;100575.97;;;18.42;67.00
9110;BME280;4590;51.462;6.692;2022-09-09T06:29:33;100578.03;;;18.45;66.99
9110;BME280;4590;51.462;6.692;2022-09-09T06:31:58;100569.31;;;18.46;67.18
9110;BME280;4590;51.462;6.692;2022-09-09T06:34:24;100568.31;;;18.54;67.19
9110;BME280;4590;51.462;6.692;2022-09-09T06:36:49;100577.66;;;18.62;66.98
9110;BME280;4590;51.462;6.692;2022-09-09T06:39:14;100579.00;;;18.68;67.12
9110;BME280;4590;51.462;6.692;2022-09-09T06:41:41;100577.53;;;18.74;66.64
9110;BME280;4590;51.462;6.692;2022-09-09T06:44:07;100566.09;;;18.79;66.46
9110;BME280;4590;51.462;6.692;2022-09-09T06:46:32;100573.28;;;18.80;66.39
9110;BME280;4590;51.462;6.692;2022-09-09T06:48:59;100574.25;;;18.88;66.07
9110;BME280;4590;51.462;6.692;2022-09-09T06:51:33;100576.66;;;18.89;66.15
9110;BME280;4590;51.462;6.692;2022-09-09T06:54:00;100590.03;;;19.00;66.41
9110;BME280;4590;51.462;6.692;2022-09-09T06:56:32;100579.06;;;19.10;65.80
9110;BME280;4590;51.462;6.692;2022-09-09T06:59:00;100576.19;;;19.26;65.80
9110;BME280;4590;51.462;6.692;2022-09-09T07:01:33;100576.09;;;19.42;65.74
9110;BME280;4590;51.462;6.692;2022-09-09T07:03:59;100582.19;;;19.67;65.34
9110;BME280;4590;51.462;6.692;2022-09-09T07:06:27;100590.44;;;19.82;64.83
9110;BME280;4590;51.462;6.692;2022-09-09T07:08:58;100583.72;;;20.10;64.01
9110;BME280;4590;51.462;6.692;2022-09-09T07:11:26;100578.88;;;20.33;63.89
9110;BME280;4590;51.462;6.692;2022-09-09T07:13:52;100583.19;;;20.53;63.08
9110;BME280;4590;51.462;6.692;2022-09-09T07:16:19;100592.31;;;20.77;63.03
9110;BME280;4590;51.462;6.692;2022-09-09T07:18:45;100582.50;;;20.90;61.67
9110;BME280;4590;51.462;6.692;2022-09-09T07:21:13;100589.38;;;20.96;60.88
9110;BME280;4590;51.462;6.692;2022-09-09T07:23:40;100590.75;;;21.09;60.66
9110;BME280;4590;51.462;6.692;2022-09-09T07:26:14;100600.72;;;21.07;59.60
9110;BME280;4590;51.462;6.692;2022-09-09T07:28:40;100590.78;;;21.13;59.64
9110;BME280;4590;51.462;6.692;2022-09-09T07:31:06;100592.34;;;21.10;59.26
9110;BME280;4590;51.462;6.692;2022-09-09T07:33:34;100591.31;;;21.22;59.16
9110;BME280;4590;51.462;6.692;2022-09-09T07:36:07;100595.81;;;21.30;59.07
9110;BME280;4590;51.462;6.692;2022-09-09T07:38:44;100611.06;;;21.36;58.31
9110;BME280;4590;51.462;6.692;2022-09-09T07:41:14;100591.97;;;21.45;58.27
9110;BME280;4590;51.462;6.692;2022-09-09T07:43:41;100608.06;;;21.52;58.14
9110;BME280;4590;51.462;6.692;2022-09-09T07:46:08;100604.44;;;21.51;57.76
9110;BME280;4590;51.462;6.692;2022-09-09T07:48:33;100605.53;;;21.40;57.28
9110;BME280;4590;51.462;6.692;2022-09-09T07:53:31;100615.69;;;21.55;56.73
9110;BME280;4590;51.462;6.692;2022-09-09T07:56:01;100615.28;;;21.19;54.22
9110;BME280;4590;51.462;6.692;2022-09-09T07:58:27;100606.44;;;21.51;56.18
9110;BME280;4590;51.462;6.692;2022-09-09T08:00:52;100613.56;;;21.45;53.03
9110;BME280;4590;51.462;6.692;2022-09-09T08:03:17;100612.28;;;21.72;55.16
9110;BME280;4590;51.462;6.692;2022-09-09T08:05:42;100618.22;;;21.67;51.80
9110;BME280;4590;51.462;6.692;2022-09-09T08:08:08;100614.34;;;21.82;54.53
9110;BME280;4590;51.462;6.692;2022-09-09T08:10:34;100614.75;;;21.81;51.86
9110;BME280;4590;51.462;6.692;2022-09-09T08:12:59;100618.22;;;22.08;54.63
9110;BME280;4590;51.462;6.692;2022-09-09T08:15:24;100616.88;;;21.94;50.48
9110;BME280;4590;51.462;6.692;2022-09-09T08:17:49;100615.94;;;22.24;53.91
9110;BME280;4590;51.462;6.692;2022-09-09T08:20:15;100616.09;;;21.97;50.45
9110;BME280;4590;51.462;6.692;2022-09-09T08:22:40;100617.13;;;22.23;53.42
9110;BME280;4590;51.462;6.692;2022-09-09T08:25:07;100617.91;;;22.16;53.04
9110;BME280;4590;51.462;6.692;2022-09-09T08:27:33;100616.28;;;22.15;52.85
9110;BME280;4590;51.462;6.692;2022-09-09T08:29:58;100617.19;;;21.86;50.33
9110;BME280;4590;51.462;6.692;2022-09-09T08:32:24;100615.47;;;22.15;52.93
9110;BME280;4590;51.462;6.692;2022-09-09T08:34:49;100618.97;;;22.04;50.57
9110;BME280;4590;51.462;6.692;2022-09-09T08:37:14;100601.28;;;22.45;53.04
9110;BME280;4590;51.462;6.692;2022-09-09T08:39:40;100611.72;;;22.48;49.22
9110;BME280;4590;51.462;6.692;2022-09-09T08:42:26;100613.09;;;22.75;48.78
9110;BME280;4590;51.462;6.692;2022-09-09T08:47:53;100610.44;;;22.96;50.00
9110;BME280;4590;51.462;6.692;2022-09-09T08:53:09;100615.66;;;23.01;47.61
9110;BME280;4590;51.462;6.692;2022-09-09T08:58:31;100621.47;;;22.71;47.29
9110;BME280;4590;51.462;6.692;2022-09-09T09:06:25;100615.75;;;22.50;48.77
9110;BME280;4590;51.462;6.692;2022-09-09T09:09:08;100628.16;;;22.49;49.16
9110;BME280;4590;51.462;6.692;2022-09-09T09:11:51;100632.41;;;22.29;48.26
9110;BME280;4590;51.462;6.692;2022-09-09T09:14:25;100627.22;;;22.31;49.05
9110;BME280;4590;51.462;6.692;2022-09-09T09:16:57;100630.38;;;22.26;49.72
9110;BME280;4590;51.462;6.692;2022-09-09T09:19:24;100626.41;;;22.30;49.89
9110;BME280;4590;51.462;6.692;2022-09-09T09:27:36;100635.72;;;21.97;49.16
9110;BME280;4590;51.462;6.692;2022-09-09T09:30:15;100640.09;;;21.95;49.17
9110;BME280;4590;51.462;6.692;2022-09-09T09:32:44;100640.84;;;21.92;49.59
9110;BME280;4590;51.462;6.692;2022-09-09T09:35:13;100642.84;;;21.91;49.77
9110;BME280;4590;51.462;6.692;2022-09-09T09:37:40;100629.22;;;21.90;50.03
9110;BME280;4590;51.462;6.692;2022-09-09T09:40:10;100640.72;;;21.78;49.59
9110;BME280;4590;51.462;6.692;2022-09-09T09:42:35;100642.66;;;21.74;49.91
9110;BME280;4590;51.462;6.692;2022-09-09T09:45:20;100636.34;;;21.43;48.60
9110;BME280;4590;51.462;6.692;2022-09-09T09:48:04;100635.31;;;21.58;49.69
9110;BME280;4590;51.462;6.692;2022-09-09T09:50:31;100640.09;;;21.58;49.77
9110;BME280;4590;51.462;6.692;2022-09-09T09:53:00;100643.06;;;21.72;49.96
9110;BME280;4590;51.462;6.692;2022-09-09T09:55:28;100638.91;;;21.96;50.05
9110;BME280;4590;51.462;6.692;2022-09-09T09:58:01;100633.53;;;22.17;48.90
9110;BME280;4590;51.462;6.692;2022-09-09T10:00:26;100632.47;;;22.39;48.86
9110;BME280;4590;51.462;6.692;2022-09-09T10:02:52;100629.03;;;22.60;47.14
9110;BME280;4590;51.462;6.692;2022-09-09T10:05:24;100625.25;;;22.93;48.15
9110;BME280;4590;51.462;6.692;2022-09-09T10:08:13;100624.53;;;23.14;46.78
9110;BME280;4590;51.462;6.692;2022-09-09T10:14:18;100613.72;;;23.20;44.58
9110;BME280;4590;51.462;6.692;2022-09-09T10:19:35;100617.44;;;23.49;47.05
9110;BME280;4590;51.462;6.692;2022-09-09T10:27:20;100611.38;;;23.32;44.87
9110;BME280;4590;51.462;6.692;2022-09-09T10:32:49;100618.53;;;23.12;44.60
9110;BME280;4590;51.462;6.692;2022-09-09T10:41:00;100625.19;;;22.79;44.91
9110;BME280;4590;51.462;6.692;2022-09-09T10:43:52;100621.16;;;22.77;45.71
9110;BME280;4590;51.462;6.692;2022-09-09T10:46:33;100617.88;;;22.71;45.61
9110;BME280;4590;51.462;6.692;2022-09-09T10:51:50;100625.88;;;22.65;46.50
9110;BME280;4590;51.462;6.692;2022-09-09T10:57:14;100604.84;;;22.38;46.22
9110;BME280;4590;51.462;6.692;2022-09-09T10:59:46;100611.34;;;22.53;46.92
9110;BME280;4590;51.462;6.692;2022-09-09T11:02:17;100609.72;;;22.48;46.55
9110;BME280;4590;51.462;6.692;2022-09-09T11:07:25;100605.75;;;22.56;46.82
9110;BME280;4590;51.462;6.692;2022-09-09T11:09:57;100602.63;;;22.65;47.06
9110;BME280;4590;51.462;6.692;2022-09-09T11:12:26;100604.22;;;22.62;46.83
9110;BME280;4590;51.462;6.692;2022-09-09T11:15:13;100605.72;;;22.53;46.05
9110;BME280;4590;51.462;6.692;2022-09-09T11:17:43;100603.34;;;22.55;46.44
9110;BME280;4590;51.462;6.692;2022-09-09T11:20:12;100605.78;;;22.60;46.56
9110;BME280;4590;51.462;6.692;2022-09-09T11:25:20;100602.59;;;22.61;47.01
9110;BME280;4590;51.462;6.692;2022-09-09T11:30:20;100602.22;;;22.70;47.24
9110;BME280;4590;51.462;6.692;2022-09-09T11:35:50;100604.31;;;22.77;46.85
9110;BME280;4590;51.462;6.692;2022-09-09T11:38:49;100590.66;;;22.75;46.42
9110;BME280;4590;51.462;6.692;2022-09-09T11:41:14;100593.13;;;22.84;46.94
9110;BME280;4590;51.462;6.692;2022-09-09T11:43:45;100587.50;;;22.84;46.18
9110;BME280;4590;51.462;6.692;2022-09-09T11:46:16;100591.50;;;22.83;46.61
9110;BME280;4590;51.462;6.692;2022-09-09T11:48:44;100596.97;;;22.58;45.92
9110;BME280;4590;51.462;6.692;2022-09-09T11:51:27;100597.00;;;22.68;45.62
9110;BME280;4590;51.462;6.692;2022-09-09T11:54:27;100605.03;;;22.66;45.95
9110;BME280;4590;51.462;6.692;2022-09-09T11:56:54;100595.91;;;22.77;46.73
9110;BME280;4590;51.462;6.692;2022-09-09T11:59:20;100602.56;;;22.58;46.00
9110;BME280;4590;51.462;6.692;2022-09-09T12:04:48;100587.03;;;22.74;45.91
9110;BME280;4590;51.462;6.692;2022-09-09T12:12:46;100598.25;;;22.74;46.33
9110;BME280;4590;51.462;6.692;2022-09-09T12:17:51;100594.09;;;22.47;45.99
9110;BME280;4590;51.462;6.692;2022-09-09T12:23:19;100601.31;;;22.52;46.91
9110;BME280;4590;51.462;6.692;2022-09-09T12:26:07;100602.13;;;22.52;46.42
9110;BME280;4590;51.462;6.692;2022-09-09T12:29:04;100616.53;;;22.47;47.19
9110;BME280;4590;51.462;6.692;2022-09-09T12:32:07;100622.53;;;22.46;50.50
9110;BME280;4590;51.462;6.692;2022-09-09T12:34:46;100634.53;;;22.46;50.35
9110;BME280;4590;51.462;6.692;2022-09-09T12:42:45;100625.69;;;22.40;50.09
9110;BME280;4590;51.462;6.692;2022-09-09T12:45:24;100632.75;;;22.24;51.27
9110;BME280;4590;51.462;6.692;2022-09-09T12:48:00;100622.81;;;22.30;51.43
9110;BME280;4590;51.462;6.692;2022-09-09T12:50:31;100629.59;;;22.29;52.20
9110;BME280;4590;51.462;6.692;2022-09-09T12:53:36;100626.31;;;22.20;52.75
9110;BME280;4590;51.462;6.692;2022-09-09T12:56:09;100628.72;;;22.18;53.24
9110;BME280;4590;51.462;6.692;2022-09-09T12:58:46;100627.13;;;22.20;53.26
9110;BME280;4590;51.462;6.692;2022-09-09T13:01:24;100629.50;;;22.15;53.51
9110;BME280;4590;51.462;6.692;2022-09-09T13:03:49;100635.88;;;22.12;53.52
9110;BME280;4590;51.462;6.692;2022-09-09T13:08:47;100622.47;;;21.94;54.54
9110;BME280;4590;51.462;6.692;2022-09-09T13:11:14;100621.06;;;21.74;56.77
9110;BME280;4590;51.462;6.692;2022-09-09T13:13:43;100613.56;;;21.82;54.96
9110;BME280;4590;51.462;6.692;2022-09-09T13:16:21;100617.69;;;21.54;56.02
9110;BME280;4590;51.462;6.692;2022-09-09T13:18:47;100614.66;;;21.70;55.36
9110;BME280;4590;51.462;6.692;2022-09-09T13:21:12;100612.91;;;21.58;56.77
9110;BME280;4590;51.462;6.692;2022-09-09T13:23:38;100600.25;;;21.72;54.96
9110;BME280;4590;51.462;6.692;2022-09-09T13:26:05;100599.22;;;21.50;57.10
9110;BME280;4590;51.462;6.692;2022-09-09T13:28:32;100594.66;;;21.75;55.51
9110;BME280;4590;51.462;6.692;2022-09-09T13:31:03;100585.03;;;21.73;54.96
9110;BME280;4590;51.462;6.692;2022-09-09T13:33:34;100589.16;;;21.82;54.45
9110;BME280;4590;51.462;6.692;2022-09-09T13:36:08;100586.81;;;21.91;54.61
9110;BME280;4590;51.462;6.692;2022-09-09T13:38:55;100574.75;;;21.84;54.07
9110;BME280;4590;51.462;6.692;2022-09-09T13:41:28;100570.81;;;21.92;53.40
9110;BME280;4590;51.462;6.692;2022-09-09T13:43:55;100570.53;;;22.04;53.86
9110;BME280;4590;51.462;6.692;2022-09-09T13:46:36;100574.59;;;22.10;53.29
9110;BME280;4590;51.462;6.692;2022-09-09T13:49:19;100568.47;;;21.97;52.93
9110;BME280;4590;51.462;6.692;2022-09-09T13:51:47;100573.06;;;22.16;52.95
9110;BME280;4590;51.462;6.692;2022-09-09T13:54:15;100571.03;;;22.13;52.73
9110;BME280;4590;51.462;6.692;2022-09-09T13:56:41;100565.88;;;22.19;52.40
9110;BME280;4590;51.462;6.692;2022-09-09T13:59:13;100566.66;;;22.16;51.67
9110;BME280;4590;51.462;6.692;2022-09-09T14:01:38;100574.63;;;22.14;52.16
9110;BME280;4590;51.462;6.692;2022-09-09T14:04:04;100563.06;;;22.19;52.01
9110;BME280;4590;51.462;6.692;2022-09-09T14:06:31;100572.78;;;22.35;51.43
9110;BME280;4590;51.462;6.692;2022-09-09T14:08:57;100566.72;;;22.26;50.86
9110;BME280;4590;51.462;6.692;2022-09-09T14:11:22;100560.00;;;22.42;50.96
9110;BME280;4590;51.462;6.692;2022-09-09T14:13:48;100552.66;;;22.19;50.22
9110;BME280;4590;51.462;6.692;2022-09-09T14:16:15;100558.44;;;22.44;50.85
9110;BME280;4590;51.462;6.692;2022-09-09T14:18:40;100563.16;;;22.36;50.26
9110;BME280;4590;51.462;6.692;2022-09-09T14:21:06;100562.88;;;22.49;50.80
9110;BME280;4590;51.462;6.692;2022-09-09T14:23:31;100563.59;;;22.35;51.00
9110;BME280;4590;51.462;6.692;2022-09-09T14:25:57;100561.66;;;22.46;51.16
9110;BME280;4590;51.462;6.692;2022-09-09T14:28:22;100563.78;;;22.09;50.70
9110;BME280;4590;51.462;6.692;2022-09-09T14:30:48;100567.97;;;22.36;50.94
9110;BME280;4590;51.462;6.692;2022-09-09T14:33:13;100592.31;;;22.25;51.03
9110;BME280;4590;51.462;6.692;2022-09-09T14:35:39;100604.81;;;22.31;51.36
9110;BME280;4590;51.462;6.692;2022-09-09T14:38:07;100614.34;;;22.23;51.64
9110;BME280;4590;51.462;6.692;2022-09-09T14:40:34;100605.78;;;22.05;52.21
9110;BME280;4590;51.462;6.692;2022-09-09T14:43:00;100618.00;;;21.86;52.74
9110;BME280;4590;51.462;6.692;2022-09-09T14:45:25;100615.06;;;21.72;53.22
9110;BME280;4590;51.462;6.692;2022-09-09T14:47:51;100616.72;;;21.40;55.71
9110;BME280;4590;51.462;6.692;2022-09-09T14:50:18;100619.13;;;21.41;54.21
9110;BME280;4590;51.462;6.692;2022-09-09T14:52:43;100617.38;;;21.29;54.89
9110;BME280;4590;51.462;6.692;2022-09-09T14:55:09;100607.59;;;21.16;55.23
9110;BME280;4590;51.462;6.692;2022-09-09T14:57:34;100609.03;;;21.03;55.66
9110;BME280;4590;51.462;6.692;2022-09-09T15:00:00;100609.94;;;20.81;56.89
9110;BME280;4590;51.462;6.692;2022-09-09T15:02:26;100595.19;;;20.84;55.90
9110;BME280;4590;51.462;6.692;2022-09-09T15:04:51;100604.88;;;20.60;57.84
9110;BME280;4590;51.462;6.692;2022-09-09T15:07:17;100599.38;;;20.67;56.25
9110;BME280;4590;51.462;6.692;2022-09-09T15:09:44;100599.66;;;20.58;57.13
9110;BME280;4590;51.462;6.692;2022-09-09T15:12:09;100589.97;;;20.52;57.27